sensor_id;sensor_type;location;lat;lon;timestamp;P1;durP1;ratioP1;P2;durP2;ratioP2
2434;SDS011;1228;51.022;6.764;2023-02-28T00:00:29;7.20;;;6.80;;
2434;SDS011;1228;51.022;6.764;2023-02-28T00:02:55;6.93;;;6.63;;
2434;SDS011;1228;51.022;6.764;2023-02-28T00:05:21;7.10;;;6.80;;
2434;SDS011;1228;51.022;6.764;2023-02-28T00:07:49;6.90;;;6.60;;
2434;SDS011;1228;51.022;6.764;2023-02-28T00:10:17;7.53;;;7.17;;
2434;SDS011;1228;51.022;6.764;2023-02-28T00:12:46;7.00;;;6.70;;
2434;SDS011;1228;51.022;6.764;2023-02-28T00:15:12;8.17;;;7.70;;
2434;SDS011;1228;51.022;6.764;2023-02-28T00:17:38;7.17;;;6.87;;
2434;SDS011;1228;51.022;6.764;2023-02-28T00:20:04;7.20;;;6.80;;
2434;SDS011;1228;51.022;6.764;2023-02-28T00:22:35;6.90;;;6.60;;
2434;SDS011;1228;51.022;6.764;2023-02-28T00:25:01;7.67;;;7.17;;
2434;SDS011;1228;51.022;6.764;2023-02-28T00:27:29;7.03;;;6.63;;
2434;SDS011;1228;51.022;6.764;2023-02-28T00:29:55;7.37;;;6.97;;
2434;SDS011;1228;51.022;6.764;2023-02-28T00:32:20;8.67;;;7.67;;
2434;SDS011;1228;51.022;6.764;2023-02-28T00:34:46;7.33;;;6.83;;
2434;SDS011;1228;51.022;6.764;2023-02-28T00:37:12;8.03;;;7.63;;
2434;SDS011;1228;51.022;6.764;2023-02-28T00:39:38;8.03;;;7.63;;
2434;SDS011;1228;51.022;6.764;2023-02-28T00:42:04;8.07;;;7.57;;
2434;SDS011;1228;51.022;6.764;2023-02-28T00:44:30;7.43;;;7.03;;
2434;SDS011;1228;51.022;6.764;2023-02-28T00:46:56;7.50;;;7.10;;
2434;SDS011;1228;51.022;6.764;2023-02-28T00:49:22;7.27;;;6.97;;
2434;SDS011;1228;51.022;6.764;2023-02-28T00:51:49;7.53;;;7.13;;
2434;SDS011;1228;51.022;6.764;2023-02-28T00:54:15;7.47;;;7.07;;
2434;SDS011;1228;51.022;6.764;2023-02-28T00:56:41;7.13;;;6.83;;
2434;SDS011;1228;51.022;6.764;2023-02-28T00:59:07;7.60;;;7.20;;
2434;SDS011;1228;51.022;6.764;2023-02-28T01:01:32;7.57;;;6.87;;
2434;SDS011;1228;51.022;6.764;2023-02-28T01:03:58;7.23;;;6.90;;
2434;SDS011;1228;51.022;6.764;2023-02-28T01:06:24;7.60;;;7.20;;
2434;SDS011;1228;51.022;6.764;2023-02-28T01:08:49;6.97;;;6.57;;
2434;SDS011;1228;51.022;6.764;2023-02-28T01:11:15;7.50;;;7.10;;
2434;SDS011;1228;51.022;6.764;2023-02-28T01:13:42;7.40;;;7.10;;
2434;SDS011;1228;51.022;6.764;2023-02-28T01:16:09;7.27;;;6.87;;
2434;SDS011;1228;51.022;6.764;2023-02-28T01:18:35;7.60;;;6.97;;
2434;SDS011;1228;51.022;6.764;2023-02-28T01:21:05;7.97;;;7.30;;
2434;SDS011;1228;51.022;6.764;2023-02-28T01:23:36;7.10;;;6.80;;
2434;SDS011;1228;51.022;6.764;2023-02-28T01:26:11;7.47;;;7.17;;
2434;SDS011;1228;51.022;6.764;2023-02-28T01:28:42;7.00;;;6.70;;
2434;SDS011;1228;51.022;6.764;2023-02-28T01:31:08;7.53;;;6.93;;
2434;SDS011;1228;51.022;6.764;2023-02-28T01:33:35;7.40;;;7.10;;
2434;SDS011;1228;51.022;6.764;2023-02-28T01:36:01;7.13;;;6.73;;
2434;SDS011;1228;51.022;6.764;2023-02-28T01:38:29;7.17;;;6.80;;
2434;SDS011;1228;51.022;6.764;2023-02-28T01:40:55;7.37;;;6.97;;
2434;SDS011;1228;51.022;6.764;2023-02-28T01:43:28;7.00;;;6.70;;
2434;SDS011;1228;51.022;6.764;2023-02-28T01:45:56;7.00;;;6.70;;
2434;SDS011;1228;51.022;6.764;2023-02-28T01:48:24;8.20;;;7.43;;
2434;SDS011;1228;51.022;6.764;2023-02-28T01:50:52;7.50;;;7.10;;
2434;SDS011;1228;51.022;6.764;2023-02-28T01:53:26;8.10;;;7.50;;
2434;SDS011;1228;51.022;6.764;2023-02-28T01:55:57;6.67;;;6.37;;
2434;SDS011;1228;51.022;6.764;2023-02-28T01:58:23;7.17;;;6.77;;
2434;SDS011;1228;51.022;6.764;2023-02-28T02:00:49;6.90;;;6.60;;
2434;SDS011;1228;51.022;6.764;2023-02-28T02:03:16;7.10;;;6.80;;
2434;SDS011;1228;51.022;6.764;2023-02-28T02:05:45;7.80;;;7.43;;
2434;SDS011;1228;51.022;6.764;2023-02-28T02:08:15;7.40;;;7.10;;
2434;SDS011;1228;51.022;6.764;2023-02-28T02:10:44;8.23;;;7.83;;
2434;SDS011;1228;51.022;6.764;2023-02-28T02:13:19;7.10;;;6.70;;
2434;SDS011;1228;51.022;6.764;2023-02-28T02:21:53;7.80;;;7.50;;
2434;SDS011;1228;51.022;6.764;2023-02-28T02:41:19;7.60;;;7.30;;
2434;SDS011;1228;51.022;6.764;2023-02-28T02:44:23;7.53;;;7.13;;
2434;SDS011;1228;51.022;6.764;2023-02-28T02:46:58;7.50;;;7.10;;
2434;SDS011;1228;51.022;6.764;2023-02-28T02:49:29;7.53;;;7.23;;
2434;SDS011;1228;51.022;6.764;2023-02-28T02:51:57;7.50;;;7.10;;
2434;SDS011;1228;51.022;6.764;2023-02-28T02:54:29;7.60;;;7.20;;
2434;SDS011;1228;51.022;6.764;2023-02-28T02:56:59;7.23;;;6.93;;
2434;SDS011;1228;51.022;6.764;2023-02-28T02:59:30;7.23;;;6.93;;
2434;SDS011;1228;51.022;6.764;2023-02-28T03:01:57;7.50;;;7.20;;
2434;SDS011;1228;51.022;6.764;2023-02-28T03:04:27;7.23;;;6.93;;
2434;SDS011;1228;51.022;6.764;2023-02-28T03:06:57;7.30;;;7.00;;
2434;SDS011;1228;51.022;6.764;2023-02-28T03:09:24;6.70;;;6.40;;
2434;SDS011;1228;51.022;6.764;2023-02-28T03:11:51;6.90;;;6.60;;
2434;SDS011;1228;51.022;6.764;2023-02-28T03:19:43;7.50;;;7.10;;
2434;SDS011;1228;51.022;6.764;2023-02-28T03:33:36;7.47;;;7.07;;
2434;SDS011;1228;51.022;6.764;2023-02-28T03:36:20;7.40;;;7.10;;
2434;SDS011;1228;51.022;6.764;2023-02-28T03:38:56;7.43;;;7.13;;
2434;SDS011;1228;51.022;6.764;2023-02-28T03:41:36;7.47;;;7.17;;
2434;SDS011;1228;51.022;6.764;2023-02-28T03:44:10;8.03;;;7.53;;
2434;SDS011;1228;51.022;6.764;2023-02-28T03:46:42;7.30;;;7.00;;
2434;SDS011;1228;51.022;6.764;2023-02-28T03:49:23;7.67;;;7.17;;
2434;SDS011;1228;51.022;6.764;2023-02-28T03:51:52;7.40;;;7.10;;
2434;SDS011;1228;51.022;6.764;2023-02-28T03:54:41;7.67;;;7.27;;
2434;SDS011;1228;51.022;6.764;2023-02-28T04:00:04;8.87;;;8.37;;
2434;SDS011;1228;51.022;6.764;2023-02-28T04:02:32;8.40;;;7.70;;
2434;SDS011;1228;51.022;6.764;2023-02-28T04:04:59;8.03;;;7.63;;
2434;SDS011;1228;51.022;6.764;2023-02-28T04:07:28;9.47;;;8.80;;
2434;SDS011;1228;51.022;6.764;2023-02-28T04:09:54;8.17;;;7.67;;
2434;SDS011;1228;51.022;6.764;2023-02-28T04:12:20;7.80;;;7.43;;
2434;SDS011;1228;51.022;6.764;2023-02-28T04:14:48;8.07;;;7.60;;
2434;SDS011;1228;51.022;6.764;2023-02-28T04:17:13;8.03;;;7.63;;
2434;SDS011;1228;51.022;6.764;2023-02-28T04:19:40;8.57;;;8.17;;
2434;SDS011;1228;51.022;6.764;2023-02-28T04:22:05;8.77;;;8.13;;
2434;SDS011;1228;51.022;6.764;2023-02-28T04:24:32;8.00;;;7.53;;
2434;SDS011;1228;51.022;6.764;2023-02-28T04:26:58;7.40;;;7.00;;
2434;SDS011;1228;51.022;6.764;2023-02-28T04:29:25;8.83;;;8.43;;
2434;SDS011;1228;51.022;6.764;2023-02-28T04:31:56;8.17;;;7.67;;
2434;SDS011;1228;51.022;6.764;2023-02-28T04:34:23;8.03;;;7.43;;
2434;SDS011;1228;51.022;6.764;2023-02-28T04:36:49;7.97;;;7.67;;
2434;SDS011;1228;51.022;6.764;2023-02-28T04:39:18;8.17;;;7.50;;
2434;SDS011;1228;51.022;6.764;2023-02-28T04:41:44;7.50;;;7.10;;
2434;SDS011;1228;51.022;6.764;2023-02-28T04:44:11;8.00;;;7.60;;
2434;SDS011;1228;51.022;6.764;2023-02-28T04:46:37;7.10;;;6.80;;
2434;SDS011;1228;51.022;6.764;2023-02-28T04:49:02;8.47;;;7.63;;
2434;SDS011;1228;51.022;6.764;2023-02-28T04:51:28;7.50;;;7.10;;
2434;SDS011;1228;51.022;6.764;2023-02-28T04:53:54;7.40;;;7.00;;
2434;SDS011;1228;51.022;6.764;2023-02-28T04:56:20;7.40;;;7.10;;
2434;SDS011;1228;51.022;6.764;2023-02-28T04:58:46;8.00;;;7.70;;
2434;SDS011;1228;51.022;6.764;2023-02-28T05:01:19;7.80;;;7.30;;
2434;SDS011;1228;51.022;6.764;2023-02-28T05:03:50;8.13;;;7.77;;
2434;SDS011;1228;51.022;6.764;2023-02-28T05:06:18;8.47;;;7.80;;
2434;SDS011;1228;51.022;6.764;2023-02-28T05:08:45;8.67;;;8.23;;
2434;SDS011;1228;51.022;6.764;2023-02-28T05:11:15;8.10;;;7.70;;
2434;SDS011;1228;51.022;6.764;2023-02-28T05:13:46;8.63;;;8.23;;
2434;SDS011;1228;51.022;6.764;2023-02-28T05:16:12;8.87;;;8.37;;
2434;SDS011;1228;51.022;6.764;2023-02-28T05:18:38;8.37;;;7.87;;
2434;SDS011;1228;51.022;6.764;2023-02-28T05:21:03;9.23;;;8.63;;
2434;SDS011;1228;51.022;6.764;2023-02-28T05:23:29;8.33;;;7.93;;
2434;SDS011;1228;51.022;6.764;2023-02-28T05:25:55;8.37;;;7.97;;
2434;SDS011;1228;51.022;6.764;2023-02-28T05:28:21;8.07;;;7.77;;
2434;SDS011;1228;51.022;6.764;2023-02-28T05:30:46;8.73;;;8.33;;
2434;SDS011;1228;51.022;6.764;2023-02-28T05:33:12;8.73;;;8.33;;
2434;SDS011;1228;51.022;6.764;2023-02-28T05:35:39;8.43;;;8.03;;
2434;SDS011;1228;51.022;6.764;2023-02-28T05:38:06;8.20;;;7.87;;
2434;SDS011;1228;51.022;6.764;2023-02-28T05:40:31;8.60;;;8.20;;
2434;SDS011;1228;51.022;6.764;2023-02-28T05:42:57;8.43;;;7.97;;
2434;SDS011;1228;51.022;6.764;2023-02-28T05:45:23;8.13;;;7.73;;
2434;SDS011;1228;51.022;6.764;2023-02-28T05:47:48;8.30;;;7.90;;
2434;SDS011;1228;51.022;6.764;2023-02-28T05:50:17;8.60;;;8.10;;
2434;SDS011;1228;51.022;6.764;2023-02-28T05:52:43;8.47;;;8.00;;
2434;SDS011;1228;51.022;6.764;2023-02-28T05:55:09;8.77;;;8.20;;
2434;SDS011;1228;51.022;6.764;2023-02-28T05:57:34;8.47;;;8.07;;
2434;SDS011;1228;51.022;6.764;2023-02-28T06:00:00;9.07;;;8.67;;
2434;SDS011;1228;51.022;6.764;2023-02-28T06:02:26;8.23;;;7.87;;
2434;SDS011;1228;51.022;6.764;2023-02-28T06:04:51;8.73;;;8.17;;
2434;SDS011;1228;51.022;6.764;2023-02-28T06:07:17;8.13;;;7.73;;
2434;SDS011;1228;51.022;6.764;2023-02-28T06:09:42;8.63;;;8.23;;
2434;SDS011;1228;51.022;6.764;2023-02-28T06:12:09;8.10;;;7.80;;
2434;SDS011;1228;51.022;6.764;2023-02-28T06:14:35;8.40;;;7.90;;
2434;SDS011;1228;51.022;6.764;2023-02-28T06:17:01;7.93;;;7.53;;
2434;SDS011;1228;51.022;6.764;2023-02-28T06:19:27;8.57;;;8.17;;
2434;SDS011;1228;51.022;6.764;2023-02-28T06:21:55;7.53;;;7.23;;
2434;SDS011;1228;51.022;6.764;2023-02-28T06:24:22;7.70;;;7.40;;
2434;SDS011;1228;51.022;6.764;2023-02-28T06:26:49;8.27;;;7.67;;
2434;SDS011;1228;51.022;6.764;2023-02-28T06:29:15;8.77;;;8.30;;
2434;SDS011;1228;51.022;6.764;2023-02-28T06:31:42;7.83;;;7.53;;
2434;SDS011;1228;51.022;6.764;2023-02-28T06:34:09;8.40;;;8.00;;
2434;SDS011;1228;51.022;6.764;2023-02-28T06:36:37;8.23;;;7.83;;
2434;SDS011;1228;51.022;6.764;2023-02-28T06:39:06;7.70;;;7.40;;
2434;SDS011;1228;51.022;6.764;2023-02-28T06:41:33;8.00;;;7.60;;
2434;SDS011;1228;51.022;6.764;2023-02-28T06:44:03;7.93;;;7.63;;
2434;SDS011;1228;51.022;6.764;2023-02-28T06:46:31;7.53;;;7.23;;
2434;SDS011;1228;51.022;6.764;2023-02-28T06:48:57;9.00;;;8.60;;
2434;SDS011;1228;51.022;6.764;2023-02-28T06:51:23;8.77;;;7.97;;
2434;SDS011;1228;51.022;6.764;2023-02-28T06:53:49;8.37;;;7.87;;
2434;SDS011;1228;51.022;6.764;2023-02-28T06:56:15;7.83;;;7.43;;
2434;SDS011;1228;51.022;6.764;2023-02-28T06:58:42;7.90;;;7.47;;
2434;SDS011;1228;51.022;6.764;2023-02-28T07:01:10;7.90;;;7.30;;
2434;SDS011;1228;51.022;6.764;2023-02-28T07:03:38;8.10;;;7.70;;
2434;SDS011;1228;51.022;6.764;2023-02-28T07:06:04;7.80;;;7.20;;
2434;SDS011;1228;51.022;6.764;2023-02-28T07:08:30;7.73;;;7.43;;
2434;SDS011;1228;51.022;6.764;2023-02-28T07:10:56;7.37;;;7.07;;
2434;SDS011;1228;51.022;6.764;2023-02-28T07:13:23;7.20;;;6.90;;
2434;SDS011;1228;51.022;6.764;2023-02-28T07:15:53;7.80;;;7.40;;
2434;SDS011;1228;51.022;6.764;2023-02-28T07:18:22;7.27;;;6.87;;
2434;SDS011;1228;51.022;6.764;2023-02-28T07:20:48;7.20;;;6.90;;
2434;SDS011;1228;51.022;6.764;2023-02-28T07:23:15;7.93;;;7.43;;
2434;SDS011;1228;51.022;6.764;2023-02-28T07:25:40;7.13;;;6.83;;
2434;SDS011;1228;51.022;6.764;2023-02-28T07:28:06;7.60;;;6.87;;
2434;SDS011;1228;51.022;6.764;2023-02-28T07:30:32;6.37;;;6.07;;
2434;SDS011;1228;51.022;6.764;2023-02-28T07:32:57;6.87;;;6.50;;
2434;SDS011;1228;51.022;6.764;2023-02-28T07:35:23;7.37;;;6.97;;
2434;SDS011;1228;51.022;6.764;2023-02-28T07:37:49;6.90;;;6.60;;
2434;SDS011;1228;51.022;6.764;2023-02-28T07:40:15;7.10;;;6.70;;
2434;SDS011;1228;51.022;6.764;2023-02-28T07:42:42;6.70;;;6.40;;
2434;SDS011;1228;51.022;6.764;2023-02-28T07:45:09;6.47;;;6.17;;
2434;SDS011;1228;51.022;6.764;2023-02-28T07:47:36;6.90;;;6.40;;
2434;SDS011;1228;51.022;6.764;2023-02-28T07:50:06;6.70;;;6.30;;
2434;SDS011;1228;51.022;6.764;2023-02-28T07:52:34;6.40;;;6.10;;
2434;SDS011;1228;51.022;6.764;2023-02-28T07:55:00;6.17;;;5.87;;
2434;SDS011;1228;51.022;6.764;2023-02-28T07:57:26;6.33;;;5.93;;
2434;SDS011;1228;51.022;6.764;2023-02-28T07:59:52;6.40;;;6.00;;
2434;SDS011;1228;51.022;6.764;2023-02-28T08:02:17;6.77;;;6.47;;
2434;SDS011;1228;51.022;6.764;2023-02-28T08:04:44;7.03;;;6.63;;
2434;SDS011;1228;51.022;6.764;2023-02-28T08:07:11;7.03;;;6.73;;
2434;SDS011;1228;51.022;6.764;2023-02-28T08:09:38;7.37;;;6.97;;
2434;SDS011;1228;51.022;6.764;2023-02-28T08:12:04;8.13;;;7.53;;
2434;SDS011;1228;51.022;6.764;2023-02-28T08:14:30;7.30;;;7.00;;
2434;SDS011;1228;51.022;6.764;2023-02-28T08:16:56;6.90;;;6.60;;
2434;SDS011;1228;51.022;6.764;2023-02-28T08:19:21;6.37;;;6.07;;
2434;SDS011;1228;51.022;6.764;2023-02-28T08:21:47;6.50;;;5.90;;
2434;SDS011;1228;51.022;6.764;2023-02-28T08:24:12;5.43;;;5.23;;
2434;SDS011;1228;51.022;6.764;2023-02-28T08:26:38;5.70;;;5.40;;
2434;SDS011;1228;51.022;6.764;2023-02-28T08:29:03;5.33;;;5.07;;
2434;SDS011;1228;51.022;6.764;2023-02-28T08:31:29;7.03;;;6.73;;
2434;SDS011;1228;51.022;6.764;2023-02-28T08:33:55;5.70;;;5.40;;
2434;SDS011;1228;51.022;6.764;2023-02-28T08:36:23;5.90;;;5.60;;
2434;SDS011;1228;51.022;6.764;2023-02-28T08:38:51;5.50;;;5.20;;
2434;SDS011;1228;51.022;6.764;2023-02-28T08:41:16;5.80;;;5.50;;
2434;SDS011;1228;51.022;6.764;2023-02-28T08:43:42;5.23;;;5.03;;
2434;SDS011;1228;51.022;6.764;2023-02-28T08:46:08;5.80;;;5.50;;
2434;SDS011;1228;51.022;6.764;2023-02-28T08:48:37;5.70;;;5.40;;
2434;SDS011;1228;51.022;6.764;2023-02-28T08:51:13;5.30;;;5.10;;
2434;SDS011;1228;51.022;6.764;2023-02-28T08:53:46;5.37;;;5.07;;
2434;SDS011;1228;51.022;6.764;2023-02-28T08:56:14;5.20;;;4.90;;
2434;SDS011;1228;51.022;6.764;2023-02-28T08:58:41;5.77;;;5.43;;
2434;SDS011;1228;51.022;6.764;2023-02-28T09:01:11;5.83;;;5.53;;
2434;SDS011;1228;51.022;6.764;2023-02-28T09:03:39;5.57;;;5.17;;
2434;SDS011;1228;51.022;6.764;2023-02-28T09:06:08;5.67;;;5.37;;
2434;SDS011;1228;51.022;6.764;2023-02-28T09:08:35;5.43;;;5.03;;
2434;SDS011;1228;51.022;6.764;2023-02-28T09:11:01;5.30;;;5.00;;
2434;SDS011;1228;51.022;6.764;2023-02-28T09:13:28;4.90;;;4.60;;
2434;SDS011;1228;51.022;6.764;2023-02-28T09:15:57;4.77;;;4.57;;
2434;SDS011;1228;51.022;6.764;2023-02-28T09:18:23;4.97;;;4.73;;
2434;SDS011;1228;51.022;6.764;2023-02-28T09:20:49;5.40;;;5.20;;
2434;SDS011;1228;51.022;6.764;2023-02-28T09:23:15;5.57;;;5.30;;
2434;SDS011;1228;51.022;6.764;2023-02-28T09:25:45;6.20;;;5.90;;
2434;SDS011;1228;51.022;6.764;2023-02-28T09:28:12;5.97;;;5.67;;
2434;SDS011;1228;51.022;6.764;2023-02-28T09:30:40;5.10;;;4.90;;
2434;SDS011;1228;51.022;6.764;2023-02-28T09:33:06;5.20;;;5.00;;
2434;SDS011;1228;51.022;6.764;2023-02-28T09:35:32;5.63;;;5.33;;
2434;SDS011;1228;51.022;6.764;2023-02-28T09:37:58;5.97;;;5.67;;
2434;SDS011;1228;51.022;6.764;2023-02-28T09:40:24;5.37;;;5.07;;
2434;SDS011;1228;51.022;6.764;2023-02-28T09:42:51;5.50;;;5.30;;
2434;SDS011;1228;51.022;6.764;2023-02-28T09:45:24;5.67;;;5.37;;
2434;SDS011;1228;51.022;6.764;2023-02-28T09:47:50;5.97;;;5.67;;
2434;SDS011;1228;51.022;6.764;2023-02-28T09:53:29;5.97;;;5.67;;
2434;SDS011;1228;51.022;6.764;2023-02-28T09:55:59;5.30;;;5.00;;
2434;SDS011;1228;51.022;6.764;2023-02-28T09:58:51;5.77;;;5.47;;
2434;SDS011;1228;51.022;6.764;2023-02-28T10:01:24;5.70;;;5.50;;
2434;SDS011;1228;51.022;6.764;2023-02-28T10:04:02;6.20;;;5.83;;
2434;SDS011;1228;51.022;6.764;2023-02-28T10:06:50;5.60;;;5.40;;
2434;SDS011;1228;51.022;6.764;2023-02-28T10:11:47;6.97;;;6.33;;
2434;SDS011;1228;51.022;6.764;2023-02-28T10:14:16;6.40;;;5.90;;
2434;SDS011;1228;51.022;6.764;2023-02-28T10:22:09;5.37;;;5.17;;
2434;SDS011;1228;51.022;6.764;2023-02-28T10:24:39;5.57;;;5.37;;
2434;SDS011;1228;51.022;6.764;2023-02-28T10:27:15;5.60;;;5.30;;
2434;SDS011;1228;51.022;6.764;2023-02-28T10:29:53;5.67;;;5.37;;
2434;SDS011;1228;51.022;6.764;2023-02-28T10:32:22;5.87;;;5.57;;
2434;SDS011;1228;51.022;6.764;2023-02-28T10:34:55;5.77;;;5.47;;
2434;SDS011;1228;51.022;6.764;2023-02-28T10:37:31;5.70;;;5.47;;
2434;SDS011;1228;51.022;6.764;2023-02-28T10:39:57;6.00;;;5.60;;
2434;SDS011;1228;51.022;6.764;2023-02-28T10:42:24;5.83;;;5.53;;
2434;SDS011;1228;51.022;6.764;2023-02-28T10:45:05;5.57;;;5.27;;
2434;SDS011;1228;51.022;6.764;2023-02-28T10:47:31;5.60;;;5.30;;
2434;SDS011;1228;51.022;6.764;2023-02-28T10:49:59;5.13;;;4.93;;
2434;SDS011;1228;51.022;6.764;2023-02-28T10:52:37;5.53;;;5.13;;
2434;SDS011;1228;51.022;6.764;2023-02-28T10:55:18;5.30;;;5.03;;
2434;SDS011;1228;51.022;6.764;2023-02-28T10:57:46;5.20;;;5.00;;
2434;SDS011;1228;51.022;6.764;2023-02-28T11:00:24;4.97;;;4.67;;
2434;SDS011;1228;51.022;6.764;2023-02-28T11:02:56;4.87;;;4.67;;
2434;SDS011;1228;51.022;6.764;2023-02-28T11:07:57;5.13;;;4.73;;
2434;SDS011;1228;51.022;6.764;2023-02-28T11:10:30;5.17;;;4.87;;
2434;SDS011;1228;51.022;6.764;2023-02-28T11:12:59;13.13;;;7.20;;
2434;SDS011;1228;51.022;6.764;2023-02-28T11:15:27;5.60;;;5.20;;
2434;SDS011;1228;51.022;6.764;2023-02-28T11:20:52;5.67;;;5.37;;
2434;SDS011;1228;51.022;6.764;2023-02-28T11:23:21;5.00;;;4.80;;
2434;SDS011;1228;51.022;6.764;2023-02-28T11:25:52;5.70;;;5.33;;
2434;SDS011;1228;51.022;6.764;2023-02-28T11:33:51;5.13;;;4.83;;
2434;SDS011;1228;51.022;6.764;2023-02-28T11:36:22;4.40;;;4.20;;
2434;SDS011;1228;51.022;6.764;2023-02-28T11:38:53;4.50;;;4.30;;
2434;SDS011;1228;51.022;6.764;2023-02-28T12:06:36;5.80;;;5.50;;
2434;SDS011;1228;51.022;6.764;2023-02-28T12:09:13;5.63;;;5.37;;
2434;SDS011;1228;51.022;6.764;2023-02-28T12:11:54;5.60;;;5.30;;
2434;SDS011;1228;51.022;6.764;2023-02-28T12:17:46;5.90;;;5.53;;
2434;SDS011;1228;51.022;6.764;2023-02-28T12:20:24;5.30;;;5.10;;
2434;SDS011;1228;51.022;6.764;2023-02-28T12:28:13;5.60;;;5.20;;
2434;SDS011;1228;51.022;6.764;2023-02-28T12:30:54;5.23;;;4.93;;
2434;SDS011;1228;51.022;6.764;2023-02-28T12:33:36;5.40;;;5.00;;
2434;SDS011;1228;51.022;6.764;2023-02-28T12:36:11;5.03;;;4.80;;
2434;SDS011;1228;51.022;6.764;2023-02-28T12:38:47;5.00;;;4.70;;
2434;SDS011;1228;51.022;6.764;2023-02-28T12:44:07;4.80;;;4.40;;
2434;SDS011;1228;51.022;6.764;2023-02-28T12:46:43;5.00;;;4.60;;
2434;SDS011;1228;51.022;6.764;2023-02-28T12:49:16;5.10;;;4.80;;
2434;SDS011;1228;51.022;6.764;2023-02-28T12:51:52;5.00;;;4.70;;
2434;SDS011;1228;51.022;6.764;2023-02-28T12:54:36;5.80;;;5.30;;
2434;SDS011;1228;51.022;6.764;2023-02-28T12:57:26;4.93;;;4.60;;
2434;SDS011;1228;51.022;6.764;2023-02-28T13:00:17;5.13;;;4.83;;
2434;SDS011;1228;51.022;6.764;2023-02-28T13:11:47;5.53;;;5.20;;
2434;SDS011;1228;51.022;6.764;2023-02-28T13:14:29;4.97;;;4.70;;
2434;SDS011;1228;51.022;6.764;2023-02-28T13:19:27;5.50;;;5.20;;
2434;SDS011;1228;51.022;6.764;2023-02-28T13:21:58;6.17;;;5.77;;
2434;SDS011;1228;51.022;6.764;2023-02-28T13:29:40;5.50;;;5.20;;
2434;SDS011;1228;51.022;6.764;2023-02-28T13:37:47;5.30;;;5.10;;
2434;SDS011;1228;51.022;6.764;2023-02-28T13:39:49;5.47;;;5.07;;
2434;SDS011;1228;51.022;6.764;2023-02-28T13:45:21;5.60;;;5.30;;
2434;SDS011;1228;51.022;6.764;2023-02-28T13:47:54;5.50;;;5.20;;
2434;SDS011;1228;51.022;6.764;2023-02-28T14:06:36;5.70;;;5.30;;
2434;SDS011;1228;51.022;6.764;2023-02-28T14:09:21;5.37;;;5.07;;
2434;SDS011;1228;51.022;6.764;2023-02-28T14:11:49;5.40;;;5.10;;
2434;SDS011;1228;51.022;6.764;2023-02-28T14:16:59;5.00;;;4.70;;
2434;SDS011;1228;51.022;6.764;2023-02-28T14:19:27;4.90;;;4.70;;
2434;SDS011;1228;51.022;6.764;2023-02-28T14:25:07;7.63;;;4.77;;
2434;SDS011;1228;51.022;6.764;2023-02-28T14:27:57;5.30;;;5.10;;
2434;SDS011;1228;51.022;6.764;2023-02-28T14:36:18;5.20;;;5.00;;
2434;SDS011;1228;51.022;6.764;2023-02-28T14:38:53;5.87;;;5.47;;
2434;SDS011;1228;51.022;6.764;2023-02-28T14:41:32;5.63;;;5.33;;
2434;SDS011;1228;51.022;6.764;2023-02-28T14:44:01;5.50;;;5.10;;
2434;SDS011;1228;51.022;6.764;2023-02-28T14:46:38;6.00;;;5.60;;
2434;SDS011;1228;51.022;6.764;2023-02-28T14:49:06;5.70;;;5.40;;
2434;SDS011;1228;51.022;6.764;2023-02-28T14:51:38;5.37;;;5.07;;
2434;SDS011;1228;51.022;6.764;2023-02-28T14:54:03;5.90;;;5.50;;
2434;SDS011;1228;51.022;6.764;2023-02-28T14:56:48;6.03;;;5.73;;
2434;SDS011;1228;51.022;6.764;2023-02-28T14:59:25;5.53;;;5.23;;
2434;SDS011;1228;51.022;6.764;2023-02-28T15:02:17;6.23;;;5.90;;
2434;SDS011;1228;51.022;6.764;2023-02-28T15:04:43;5.67;;;5.37;;
2434;SDS011;1228;51.022;6.764;2023-02-28T15:07:21;5.83;;;5.43;;
2434;SDS011;1228;51.022;6.764;2023-02-28T15:10:10;6.57;;;5.47;;
2434;SDS011;1228;51.022;6.764;2023-02-28T15:12:36;5.93;;;5.63;;
2434;SDS011;1228;51.022;6.764;2023-02-28T15:15:04;5.43;;;5.10;;
2434;SDS011;1228;51.022;6.764;2023-02-28T15:17:32;5.83;;;5.53;;
2434;SDS011;1228;51.022;6.764;2023-02-28T15:19:59;5.57;;;5.30;;
2434;SDS011;1228;51.022;6.764;2023-02-28T15:22:29;5.93;;;5.63;;
2434;SDS011;1228;51.022;6.764;2023-02-28T15:25:00;5.60;;;5.30;;
2434;SDS011;1228;51.022;6.764;2023-02-28T15:27:29;5.73;;;5.43;;
2434;SDS011;1228;51.022;6.764;2023-02-28T15:29:59;5.77;;;5.47;;
2434;SDS011;1228;51.022;6.764;2023-02-28T15:32:31;5.80;;;5.50;;
2434;SDS011;1228;51.022;6.764;2023-02-28T15:34:58;5.77;;;5.47;;
2434;SDS011;1228;51.022;6.764;2023-02-28T15:37:47;5.90;;;5.60;;
2434;SDS011;1228;51.022;6.764;2023-02-28T15:40:22;6.07;;;5.60;;
2434;SDS011;1228;51.022;6.764;2023-02-28T15:48:11;4.97;;;4.70;;
2434;SDS011;1228;51.022;6.764;2023-02-28T15:50:48;5.40;;;5.10;;
2434;SDS011;1228;51.022;6.764;2023-02-28T15:53:18;5.70;;;5.40;;
2434;SDS011;1228;51.022;6.764;2023-02-28T15:55:52;5.67;;;5.37;;
2434;SDS011;1228;51.022;6.764;2023-02-28T15:58:20;5.70;;;5.40;;
2434;SDS011;1228;51.022;6.764;2023-02-28T16:00:59;6.10;;;5.80;;
2434;SDS011;1228;51.022;6.764;2023-02-28T16:03:27;6.33;;;5.90;;
2434;SDS011;1228;51.022;6.764;2023-02-28T16:06:09;5.60;;;5.30;;
2434;SDS011;1228;51.022;6.764;2023-02-28T16:08:59;5.73;;;5.43;;
2434;SDS011;1228;51.022;6.764;2023-02-28T16:11:25;6.10;;;5.80;;
2434;SDS011;1228;51.022;6.764;2023-02-28T16:13:51;5.97;;;5.63;;
2434;SDS011;1228;51.022;6.764;2023-02-28T16:16:19;5.80;;;5.40;;
2434;SDS011;1228;51.022;6.764;2023-02-28T16:18:46;5.73;;;5.43;;
2434;SDS011;1228;51.022;6.764;2023-02-28T16:21:12;5.90;;;5.60;;
2434;SDS011;1228;51.022;6.764;2023-02-28T16:23:38;6.37;;;5.87;;
2434;SDS011;1228;51.022;6.764;2023-02-28T16:26:03;5.63;;;5.33;;
2434;SDS011;1228;51.022;6.764;2023-02-28T16:28:30;5.40;;;5.20;;
2434;SDS011;1228;51.022;6.764;2023-02-28T16:30:59;5.60;;;5.30;;
2434;SDS011;1228;51.022;6.764;2023-02-28T16:33:27;5.87;;;5.47;;
2434;SDS011;1228;51.022;6.764;2023-02-28T16:35:53;6.03;;;5.73;;
2434;SDS011;1228;51.022;6.764;2023-02-28T16:38:19;6.00;;;5.70;;
2434;SDS011;1228;51.022;6.764;2023-02-28T16:40:44;6.03;;;5.73;;
2434;SDS011;1228;51.022;6.764;2023-02-28T16:43:15;6.07;;;5.77;;
2434;SDS011;1228;51.022;6.764;2023-02-28T16:45:44;6.07;;;5.77;;
2434;SDS011;1228;51.022;6.764;2023-02-28T16:48:14;5.97;;;5.57;;
2434;SDS011;1228;51.022;6.764;2023-02-28T16:50:41;7.23;;;6.57;;
2434;SDS011;1228;51.022;6.764;2023-02-28T16:53:09;6.13;;;5.73;;
2434;SDS011;1228;51.022;6.764;2023-02-28T16:55:35;6.60;;;6.03;;
2434;SDS011;1228;51.022;6.764;2023-02-28T16:58:02;6.20;;;5.80;;
2434;SDS011;1228;51.022;6.764;2023-02-28T17:00:28;6.00;;;5.70;;
2434;SDS011;1228;51.022;6.764;2023-02-28T17:02:55;6.53;;;6.03;;
2434;SDS011;1228;51.022;6.764;2023-02-28T17:05:21;8.00;;;6.53;;
2434;SDS011;1228;51.022;6.764;2023-02-28T17:07:48;6.90;;;6.50;;
2434;SDS011;1228;51.022;6.764;2023-02-28T17:10:32;6.93;;;6.43;;
2434;SDS011;1228;51.022;6.764;2023-02-28T17:12:58;6.87;;;6.53;;
2434;SDS011;1228;51.022;6.764;2023-02-28T17:15:23;7.50;;;7.00;;
2434;SDS011;1228;51.022;6.764;2023-02-28T17:17:49;7.63;;;7.23;;
2434;SDS011;1228;51.022;6.764;2023-02-28T17:20:16;7.10;;;6.80;;
2434;SDS011;1228;51.022;6.764;2023-02-28T17:22:42;8.33;;;7.83;;
2434;SDS011;1228;51.022;6.764;2023-02-28T17:25:08;8.43;;;8.00;;
2434;SDS011;1228;51.022;6.764;2023-02-28T17:27:35;8.87;;;8.37;;
2434;SDS011;1228;51.022;6.764;2023-02-28T17:30:01;9.90;;;9.03;;
2434;SDS011;1228;51.022;6.764;2023-02-28T17:32:28;9.40;;;8.83;;
2434;SDS011;1228;51.022;6.764;2023-02-28T17:34:53;8.93;;;8.43;;
2434;SDS011;1228;51.022;6.764;2023-02-28T17:37:19;9.10;;;8.70;;
2434;SDS011;1228;51.022;6.764;2023-02-28T17:39:44;8.17;;;7.70;;
2434;SDS011;1228;51.022;6.764;2023-02-28T17:42:10;8.70;;;8.00;;
2434;SDS011;1228;51.022;6.764;2023-02-28T17:44:35;8.43;;;7.83;;
2434;SDS011;1228;51.022;6.764;2023-02-28T17:47:02;7.37;;;6.97;;
2434;SDS011;1228;51.022;6.764;2023-02-28T17:49:28;9.10;;;6.63;;
2434;SDS011;1228;51.022;6.764;2023-02-28T17:51:54;7.47;;;6.90;;
2434;SDS011;1228;51.022;6.764;2023-02-28T17:54:19;7.53;;;6.97;;
2434;SDS011;1228;51.022;6.764;2023-02-28T17:56:45;8.17;;;7.47;;
2434;SDS011;1228;51.022;6.764;2023-02-28T17:59:11;7.60;;;7.20;;
2434;SDS011;1228;51.022;6.764;2023-02-28T18:01:38;7.27;;;6.90;;
2434;SDS011;1228;51.022;6.764;2023-02-28T18:04:03;8.57;;;8.07;;
2434;SDS011;1228;51.022;6.764;2023-02-28T18:06:39;8.20;;;7.70;;